Terminal Aerodrome Forecast
Issued by NWS

Home | Current Version | Previous Version | Text Only | Print | Product List | Glossary On
Versions: 1 2 3 4 5 6 7 8 9 10 11 12 13
000
FTUS45 KCYS 200527
TAFAIA
TAF
KAIA 200527Z 2006/2106 VRB05KT P6SM SKC
     FM201200 36012KT P6SM SKC
     FM201400 05012G18KT P6SM SKC
     FM201800 08012G18KT P6SM SKC
     FM202200 09010KT P6SM SCT008=

USA.gov is the U.S. government's official web portal to all federal, state and local government web resources and services.